createdAt,value
2022-08-27T00:00:34.801Z,998.3
2022-08-27T00:01:51.081Z,998.3
2022-08-27T00:03:07.390Z,998.3
2022-08-27T00:04:23.668Z,998.3
2022-08-27T00:05:39.969Z,998.3
2022-08-27T00:06:56.259Z,998.3
2022-08-27T00:08:12.554Z,998.3
2022-08-27T00:09:28.844Z,998.3
2022-08-27T00:10:45.140Z,998.3
2022-08-27T00:12:00.450Z,998.4
2022-08-27T00:13:16.742Z,998.4
2022-08-27T00:14:33.035Z,998.4
2022-08-27T00:15:49.339Z,998.3
2022-08-27T00:17:05.617Z,998.4
2022-08-27T00:18:21.923Z,998.4
2022-08-27T00:19:38.209Z,998.4
2022-08-27T00:20:54.498Z,998.4
2022-08-27T00:22:10.794Z,998.4
2022-08-27T00:23:27.091Z,998.4
2022-08-27T00:24:43.394Z,998.4
2022-08-27T00:25:59.680Z,998.4
2022-08-27T00:27:15.978Z,998.4
2022-08-27T00:28:31.295Z,998.4
2022-08-27T00:29:47.576Z,998.4
2022-08-27T00:31:03.870Z,998.4
2022-08-27T00:32:20.160Z,998.5
2022-08-27T00:33:36.458Z,998.5
2022-08-27T00:34:52.744Z,998.5
2022-08-27T00:36:09.048Z,998.4
2022-08-27T00:37:25.339Z,998.5
2022-08-27T00:38:41.641Z,998.5
2022-08-27T00:39:57.918Z,998.4
2022-08-27T00:41:14.229Z,998.4
2022-08-27T00:42:30.517Z,998.4
2022-08-27T00:43:46.810Z,998.4
2022-08-27T00:45:02.122Z,998.5
2022-08-27T00:46:18.413Z,998.4
2022-08-27T00:47:34.697Z,998.5
2022-08-27T00:48:50.988Z,998.5
2022-08-27T00:50:07.295Z,998.5
2022-08-27T00:51:23.584Z,998.5
2022-08-27T00:52:39.883Z,998.4
2022-08-27T00:53:56.167Z,998.4
2022-08-27T00:55:12.461Z,998.5
2022-08-27T00:56:28.751Z,998.4
2022-08-27T00:57:45.055Z,998.4
2022-08-27T00:59:01.342Z,998.4
2022-08-27T01:00:17.639Z,998.4
2022-08-27T01:01:32.946Z,998.4
2022-08-27T01:02:49.233Z,998.4
2022-08-27T01:04:05.541Z,998.4
2022-08-27T01:05:21.835Z,998.4
2022-08-27T01:06:38.125Z,998.4
2022-08-27T01:07:54.413Z,998.4
2022-08-27T01:09:10.715Z,998.4
2022-08-27T01:10:27.007Z,998.4
2022-08-27T01:11:43.295Z,998.4
2022-08-27T01:12:59.589Z,998.4
2022-08-27T01:14:15.881Z,998.5
2022-08-27T01:15:32.184Z,998.5
2022-08-27T01:16:48.475Z,998.4
2022-08-27T01:18:04.764Z,998.5
2022-08-27T01:19:20.081Z,998.5
2022-08-27T01:20:36.368Z,998.5
2022-08-27T01:21:52.661Z,998.5
2022-08-27T01:23:08.958Z,998.5
2022-08-27T01:24:25.259Z,998.5
2022-08-27T01:25:41.549Z,998.5
2022-08-27T01:26:57.833Z,998.6
2022-08-27T01:28:14.121Z,998.6
2022-08-27T01:29:30.424Z,998.6
2022-08-27T01:30:46.726Z,998.7
2022-08-27T01:32:03.006Z,998.7
2022-08-27T01:33:19.301Z,998.7
2022-08-27T01:34:35.608Z,998.7
2022-08-27T01:35:50.912Z,998.7
2022-08-27T01:37:07.192Z,998.7
2022-08-27T01:38:23.486Z,998.7
2022-08-27T01:39:39.779Z,998.7
2022-08-27T01:40:56.093Z,998.7
2022-08-27T01:42:12.379Z,998.7
2022-08-27T01:43:28.679Z,998.7
2022-08-27T01:44:44.957Z,998.7
2022-08-27T01:46:01.259Z,998.8
2022-08-27T01:47:17.542Z,998.7
2022-08-27T01:48:33.847Z,998.7
2022-08-27T01:49:50.127Z,998.8
2022-08-27T01:51:06.432Z,998.8
2022-08-27T01:52:21.739Z,998.7
2022-08-27T01:53:38.031Z,998.7
2022-08-27T01:54:54.327Z,998.7
2022-08-27T01:56:10.624Z,998.7
2022-08-27T01:57:26.918Z,998.7
2022-08-27T01:58:43.201Z,998.6
2022-08-27T01:59:59.512Z,998.7
2022-08-27T02:01:15.791Z,998.7
2022-08-27T02:02:32.000Z,998.6
2022-08-27T02:03:48.393Z,998.7
2022-08-27T02:05:04.671Z,998.6
2022-08-27T02:06:20.980Z,998.6
2022-08-27T02:07:37.258Z,998.6
2022-08-27T02:08:52.575Z,998.6
2022-08-27T02:10:08.871Z,998.6
2022-08-27T02:11:25.160Z,998.6
2022-08-27T02:12:41.455Z,998.6
2022-08-27T02:13:57.762Z,998.6
2022-08-27T02:15:14.036Z,998.6
2022-08-27T02:16:30.335Z,998.6
2022-08-27T02:17:46.627Z,998.7
2022-08-27T02:19:02.936Z,998.6
2022-08-27T02:20:19.231Z,998.7
2022-08-27T02:21:35.520Z,998.7
2022-08-27T02:22:51.814Z,998.7
2022-08-27T02:24:08.095Z,998.6
2022-08-27T02:25:23.412Z,998.7
2022-08-27T02:26:39.713Z,998.6
2022-08-27T02:27:55.995Z,998.6
2022-08-27T02:29:12.299Z,998.6
2022-08-27T02:30:28.582Z,998.6
2022-08-27T02:31:44.877Z,998.6
2022-08-27T02:34:17.477Z,998.6
2022-08-27T02:35:33.774Z,998.7
2022-08-27T02:36:50.066Z,998.7
2022-08-27T02:38:06.349Z,998.6
2022-08-27T02:39:22.646Z,998.6
2022-08-27T02:40:38.940Z,998.6
2022-08-27T02:41:54.258Z,998.7
2022-08-27T02:43:10.552Z,998.7
2022-08-27T02:44:26.835Z,998.7
2022-08-27T02:45:43.122Z,998.7
2022-08-27T02:46:59.417Z,998.6
2022-08-27T02:48:15.722Z,998.6
2022-08-27T02:49:32.010Z,998.6
2022-08-27T02:50:48.303Z,998.6
2022-08-27T02:52:04.608Z,998.6
2022-08-27T02:53:20.893Z,998.6
2022-08-27T02:54:37.176Z,998.6
2022-08-27T02:55:53.477Z,998.6
2022-08-27T02:57:09.761Z,998.6
2022-08-27T02:58:25.088Z,998.5
2022-08-27T02:59:41.379Z,998.5
2022-08-27T03:00:57.671Z,998.5
2022-08-27T03:02:13.965Z,998.6
2022-08-27T03:03:30.250Z,998.6
2022-08-27T03:04:45.564Z,998.5
2022-08-27T03:06:01.861Z,998.5
2022-08-27T03:07:18.158Z,998.5
2022-08-27T03:08:34.450Z,998.5
2022-08-27T03:09:50.754Z,998.5
2022-08-27T03:11:07.031Z,998.5
2022-08-27T03:12:23.346Z,998.5
2022-08-27T03:13:39.630Z,998.5
2022-08-27T03:14:55.912Z,998.5
2022-08-27T03:16:12.208Z,998.5
2022-08-27T03:17:28.517Z,998.5
2022-08-27T03:18:44.820Z,998.5
2022-08-27T03:20:01.113Z,998.6
2022-08-27T03:21:16.403Z,998.5
2022-08-27T03:22:32.698Z,998.5
2022-08-27T03:23:49.007Z,998.5
2022-08-27T03:25:05.290Z,998.5
2022-08-27T03:26:21.590Z,998.5
2022-08-27T03:27:37.884Z,998.5
2022-08-27T03:28:54.166Z,998.5
2022-08-27T03:30:10.473Z,998.5
2022-08-27T03:31:26.757Z,998.5
2022-08-27T03:32:43.055Z,998.5
2022-08-27T03:33:59.359Z,998.5
2022-08-27T03:35:15.655Z,998.5
2022-08-27T03:36:31.947Z,998.5
2022-08-27T03:37:47.254Z,998.5
2022-08-27T03:39:03.548Z,998.5
2022-08-27T03:40:19.837Z,998.5
2022-08-27T03:41:36.135Z,998.5
2022-08-27T03:42:52.432Z,998.5
2022-08-27T03:44:08.717Z,998.5
2022-08-27T03:45:25.004Z,998.5
2022-08-27T03:46:41.251Z,998.5
2022-08-27T03:47:57.536Z,998.4
2022-08-27T03:49:13.840Z,998.5
2022-08-27T03:50:30.137Z,998.4
2022-08-27T03:51:46.379Z,998.5
2022-08-27T03:53:02.672Z,998.5
2022-08-27T03:54:17.944Z,998.5
2022-08-27T03:55:34.221Z,998.5
2022-08-27T03:56:50.527Z,998.5
2022-08-27T03:58:06.785Z,998.5
2022-08-27T03:59:23.025Z,998.5
2022-08-27T04:00:39.274Z,998.5
2022-08-27T04:01:55.508Z,998.5
2022-08-27T04:03:11.761Z,998.6
2022-08-27T04:04:27.985Z,998.6
2022-08-27T04:05:44.220Z,998.6
2022-08-27T04:07:00.475Z,998.6
2022-08-27T04:08:16.718Z,998.6
2022-08-27T04:09:32.953Z,998.6
2022-08-27T04:10:48.193Z,998.6
2022-08-27T04:12:04.449Z,998.7
2022-08-27T04:13:20.673Z,998.7
2022-08-27T04:14:36.914Z,998.7
2022-08-27T04:15:53.182Z,998.7
2022-08-27T04:17:09.395Z,998.7
2022-08-27T04:18:25.649Z,998.8
2022-08-27T04:19:41.876Z,998.8
2022-08-27T04:20:58.126Z,998.8
2022-08-27T04:22:14.362Z,998.8
2022-08-27T04:23:30.614Z,998.8
2022-08-27T04:24:46.849Z,998.8
2022-08-27T04:26:03.079Z,998.7
2022-08-27T04:27:18.336Z,998.8
2022-08-27T04:28:34.577Z,998.8
2022-08-27T04:29:50.819Z,998.8
2022-08-27T04:31:07.067Z,998.8
2022-08-27T04:32:23.299Z,998.8
2022-08-27T04:33:39.536Z,998.8
2022-08-27T04:34:55.777Z,998.8
2022-08-27T04:36:12.015Z,998.8
2022-08-27T04:37:28.263Z,998.8
2022-08-27T04:38:44.504Z,998.8
2022-08-27T04:40:00.735Z,998.8
2022-08-27T04:41:16.000Z,998.8
2022-08-27T04:42:33.230Z,998.8
2022-08-27T04:43:48.483Z,998.8
2022-08-27T04:45:04.718Z,998.8
2022-08-27T04:46:20.953Z,998.8
2022-08-27T04:47:37.207Z,998.8
2022-08-27T04:48:53.436Z,998.8
2022-08-27T04:50:09.676Z,998.8
2022-08-27T04:51:25.918Z,998.7
2022-08-27T04:52:42.169Z,998.7
2022-08-27T04:53:58.393Z,998.7
2022-08-27T04:55:14.631Z,998.7
2022-08-27T04:56:30.878Z,998.7
2022-08-27T04:57:47.140Z,998.7
2022-08-27T04:59:03.355Z,998.7
2022-08-27T05:00:18.613Z,998.7
2022-08-27T05:01:34.860Z,998.7
2022-08-27T05:02:51.104Z,998.7
2022-08-27T05:04:07.332Z,998.7
2022-08-27T05:05:23.579Z,998.7
2022-08-27T05:06:39.817Z,998.7
2022-08-27T05:07:56.048Z,998.8
2022-08-27T05:09:12.300Z,998.8
2022-08-27T05:10:28.527Z,998.8
2022-08-27T05:11:44.785Z,998.8
2022-08-27T05:13:01.018Z,998.8
2022-08-27T05:14:17.264Z,998.8
2022-08-27T05:15:33.497Z,998.9
2022-08-27T05:16:48.756Z,998.8
2022-08-27T05:18:04.995Z,998.9
2022-08-27T05:19:21.234Z,998.8
2022-08-27T05:20:37.487Z,998.8
2022-08-27T05:21:53.717Z,998.8
2022-08-27T05:23:09.942Z,998.8
2022-08-27T05:24:26.182Z,998.9
2022-08-27T05:25:42.431Z,998.8
2022-08-27T05:26:58.680Z,998.8
2022-08-27T05:28:14.908Z,998.8
2022-08-27T05:29:31.156Z,998.9
2022-08-27T05:30:47.383Z,998.8
2022-08-27T05:32:03.627Z,998.8
2022-08-27T05:33:18.888Z,998.8
2022-08-27T05:34:35.123Z,998.8
2022-08-27T05:35:51.365Z,998.8
2022-08-27T05:37:07.613Z,998.8
2022-08-27T05:38:23.841Z,998.8
2022-08-27T05:39:40.087Z,998.7
2022-08-27T05:40:56.332Z,998.7
2022-08-27T05:42:12.569Z,998.7
2022-08-27T05:43:28.818Z,998.7
2022-08-27T05:44:45.049Z,998.7
2022-08-27T05:46:01.278Z,998.7
2022-08-27T05:47:17.534Z,998.7
2022-08-27T05:48:33.765Z,998.7
2022-08-27T05:49:49.037Z,998.7
2022-08-27T05:51:05.265Z,998.7
2022-08-27T05:52:21.496Z,998.8
2022-08-27T05:53:37.748Z,998.7
2022-08-27T05:54:53.977Z,998.7
2022-08-27T05:56:10.223Z,998.7
2022-08-27T05:57:26.469Z,998.7
2022-08-27T05:58:42.696Z,998.7
2022-08-27T05:59:58.938Z,998.7
2022-08-27T06:01:15.187Z,998.7
2022-08-27T06:02:31.433Z,998.7
2022-08-27T06:03:47.656Z,998.7
2022-08-27T06:05:03.902Z,998.8
2022-08-27T06:06:19.172Z,998.8
2022-08-27T06:07:35.421Z,998.8
2022-08-27T06:08:51.650Z,998.7
2022-08-27T06:10:07.885Z,998.8
2022-08-27T06:11:24.114Z,998.7
2022-08-27T06:12:40.366Z,998.7
2022-08-27T06:13:56.611Z,998.7
2022-08-27T06:15:12.833Z,998.7
2022-08-27T06:16:29.094Z,998.7
2022-08-27T06:17:45.320Z,998.7
2022-08-27T06:19:01.555Z,998.8
2022-08-27T06:20:17.801Z,998.7
2022-08-27T06:21:34.055Z,998.8
2022-08-27T06:22:49.308Z,998.7
2022-08-27T06:24:05.536Z,998.8
2022-08-27T06:25:21.775Z,998.8
2022-08-27T06:26:38.021Z,998.8
2022-08-27T06:27:54.252Z,998.8
2022-08-27T06:29:10.502Z,998.8
2022-08-27T06:30:26.732Z,998.9
2022-08-27T06:31:42.987Z,998.9
2022-08-27T06:32:59.228Z,998.9
2022-08-27T06:34:15.452Z,998.9
2022-08-27T06:35:31.694Z,998.9
2022-08-27T06:36:47.935Z,998.9
2022-08-27T06:38:04.184Z,998.9
2022-08-27T06:39:19.427Z,998.9
2022-08-27T06:40:35.683Z,998.9
2022-08-27T06:41:51.920Z,998.9
2022-08-27T06:43:08.154Z,998.9
2022-08-27T06:44:24.396Z,998.9
2022-08-27T06:45:40.647Z,998.9
2022-08-27T06:46:56.877Z,998.9
2022-08-27T06:48:13.127Z,999
2022-08-27T06:49:29.355Z,998.9
2022-08-27T06:50:45.601Z,999
2022-08-27T06:52:01.831Z,999
2022-08-27T06:53:18.081Z,999
2022-08-27T06:54:34.320Z,999
2022-08-27T06:55:49.574Z,999
2022-08-27T06:57:05.815Z,999
2022-08-27T06:58:22.046Z,999
2022-08-27T06:59:38.291Z,999
2022-08-27T07:00:54.540Z,999
2022-08-27T07:02:10.771Z,999
2022-08-27T07:03:27.009Z,999.1
2022-08-27T07:04:43.262Z,999.1
2022-08-27T07:05:59.502Z,999.1
2022-08-27T07:07:15.746Z,999.1
2022-08-27T07:08:31.970Z,999.1
2022-08-27T07:09:48.221Z,999.1
2022-08-27T07:11:04.460Z,999.1
2022-08-27T07:12:19.711Z,999.1
2022-08-27T07:13:35.949Z,999.2
2022-08-27T07:14:52.198Z,999.2
2022-08-27T07:16:08.430Z,999.1
2022-08-27T07:17:24.667Z,999.2
2022-08-27T07:18:40.919Z,999.2
2022-08-27T07:19:56.183Z,999.2
2022-08-27T07:21:12.425Z,999.2
2022-08-27T07:22:28.646Z,999.2
2022-08-27T07:23:44.903Z,999.2
2022-08-27T07:25:01.124Z,999.3
2022-08-27T07:26:17.376Z,999.2
2022-08-27T07:27:33.613Z,999.3
2022-08-27T07:28:49.846Z,999.2
2022-08-27T07:30:06.099Z,999.2
2022-08-27T07:31:22.326Z,999.3
2022-08-27T07:32:38.594Z,999.2
2022-08-27T07:33:54.833Z,999.2
2022-08-27T07:35:11.062Z,999.2
2022-08-27T07:36:26.311Z,999.3
2022-08-27T07:37:42.567Z,999.3
2022-08-27T07:38:58.794Z,999.3
2022-08-27T07:40:15.024Z,999.3
2022-08-27T07:41:31.269Z,999.3
2022-08-27T07:42:47.523Z,999.3
2022-08-27T07:44:03.751Z,999.3
2022-08-27T07:45:20.013Z,999.3
2022-08-27T07:46:36.240Z,999.3
2022-08-27T07:47:52.473Z,999.3
2022-08-27T07:49:08.711Z,999.3
2022-08-27T07:50:24.962Z,999.3
2022-08-27T07:51:41.208Z,999.3
2022-08-27T07:52:56.462Z,999.3
2022-08-27T07:54:12.700Z,999.4
2022-08-27T07:55:28.933Z,999.3
2022-08-27T07:56:45.179Z,999.4
2022-08-27T07:58:01.417Z,999.4
2022-08-27T07:59:17.645Z,999.4
2022-08-27T08:00:33.911Z,999.4
2022-08-27T08:01:50.151Z,999.4
2022-08-27T08:03:06.362Z,999.4
2022-08-27T08:04:22.625Z,999.4
2022-08-27T08:05:38.847Z,999.5
2022-08-27T08:06:55.083Z,999.4
2022-08-27T08:08:11.326Z,999.5
2022-08-27T08:09:26.595Z,999.4
2022-08-27T08:10:42.827Z,999.4
2022-08-27T08:11:59.085Z,999.4
2022-08-27T08:13:15.306Z,999.4
2022-08-27T08:14:31.555Z,999.5
2022-08-27T08:15:47.795Z,999.4
2022-08-27T08:17:04.029Z,999.4
2022-08-27T08:18:20.264Z,999.4
2022-08-27T08:19:36.500Z,999.4
2022-08-27T08:20:52.752Z,999.4
2022-08-27T08:22:09.005Z,999.4
2022-08-27T08:23:25.226Z,999.4
2022-08-27T08:24:41.484Z,999.5
2022-08-27T08:25:56.720Z,999.4
2022-08-27T08:27:12.979Z,999.4
2022-08-27T08:28:29.197Z,999.5
2022-08-27T08:29:45.453Z,999.5
2022-08-27T08:31:01.688Z,999.5
2022-08-27T08:32:17.929Z,999.4
2022-08-27T08:33:34.177Z,999.5
2022-08-27T08:34:50.414Z,999.5
2022-08-27T08:36:06.651Z,999.5
2022-08-27T08:37:22.879Z,999.5
2022-08-27T08:38:39.118Z,999.5
2022-08-27T08:39:55.375Z,999.5
2022-08-27T08:41:11.600Z,999.5
2022-08-27T08:42:26.875Z,999.5
2022-08-27T08:43:43.094Z,999.5
2022-08-27T08:44:59.337Z,999.5
2022-08-27T08:46:15.596Z,999.5
2022-08-27T08:47:31.839Z,999.5
2022-08-27T08:48:48.055Z,999.5
2022-08-27T08:50:04.295Z,999.5
2022-08-27T08:51:20.545Z,999.5
2022-08-27T08:52:36.799Z,999.5
2022-08-27T08:53:53.029Z,999.5
2022-08-27T08:55:09.247Z,999.5
2022-08-27T08:56:25.494Z,999.5
2022-08-27T08:57:41.736Z,999.5
2022-08-27T08:58:56.987Z,999.6
2022-08-27T09:00:13.255Z,999.5
2022-08-27T09:01:29.482Z,999.6
2022-08-27T09:02:45.731Z,999.5
2022-08-27T09:04:01.958Z,999.6
2022-08-27T09:05:18.189Z,999.6
2022-08-27T09:06:34.428Z,999.6
2022-08-27T09:07:50.664Z,999.5
2022-08-27T09:09:06.924Z,999.6
2022-08-27T09:10:23.145Z,999.6
2022-08-27T09:11:39.414Z,999.6
2022-08-27T09:12:55.624Z,999.6
2022-08-27T09:14:11.878Z,999.6
2022-08-27T09:15:27.126Z,999.6
2022-08-27T09:16:43.357Z,999.6
2022-08-27T09:17:59.599Z,999.6
2022-08-27T09:19:15.835Z,999.6
2022-08-27T09:20:32.076Z,999.6
2022-08-27T09:21:48.323Z,999.5
2022-08-27T09:23:04.571Z,999.6
2022-08-27T09:24:20.815Z,999.6
2022-08-27T09:25:37.060Z,999.6
2022-08-27T09:26:53.294Z,999.6
2022-08-27T09:28:09.527Z,999.6
2022-08-27T09:30:42.004Z,999.6
2022-08-27T09:31:57.250Z,999.6
2022-08-27T09:33:13.509Z,999.6
2022-08-27T09:34:29.747Z,999.6
2022-08-27T09:35:45.982Z,999.6
2022-08-27T09:37:02.211Z,999.6
2022-08-27T09:38:18.468Z,999.5
2022-08-27T09:39:34.693Z,999.5
2022-08-27T09:40:50.945Z,999.5
2022-08-27T09:42:07.167Z,999.5
2022-08-27T09:43:23.413Z,999.5
2022-08-27T09:44:39.662Z,999.5
2022-08-27T09:45:55.902Z,999.5
2022-08-27T09:47:12.128Z,999.5
2022-08-27T09:48:27.395Z,999.6
2022-08-27T09:49:43.632Z,999.6
2022-08-27T09:50:59.865Z,999.6
2022-08-27T09:52:16.098Z,999.6
2022-08-27T09:53:32.344Z,999.6
2022-08-27T09:54:48.587Z,999.6
2022-08-27T09:56:04.832Z,999.6
2022-08-27T09:57:21.057Z,999.5
2022-08-27T09:58:37.292Z,999.5
2022-08-27T09:59:53.538Z,999.5
2022-08-27T10:01:09.776Z,999.5
2022-08-27T10:02:26.027Z,999.5
2022-08-27T10:03:42.251Z,999.5
2022-08-27T10:04:57.519Z,999.5
2022-08-27T10:06:13.753Z,999.5
2022-08-27T10:07:29.992Z,999.5
2022-08-27T10:08:46.236Z,999.5
2022-08-27T10:10:02.498Z,999.5
2022-08-27T10:11:18.699Z,999.5
2022-08-27T10:12:34.955Z,999.5
2022-08-27T10:13:51.186Z,999.5
2022-08-27T10:15:07.430Z,999.5
2022-08-27T10:16:23.672Z,999.5
2022-08-27T10:17:39.899Z,999.5
2022-08-27T10:18:56.143Z,999.5
2022-08-27T10:20:12.378Z,999.4
2022-08-27T10:21:27.642Z,999.4
2022-08-27T10:22:43.876Z,999.4
2022-08-27T10:24:00.135Z,999.4
2022-08-27T10:25:16.348Z,999.5
2022-08-27T10:26:32.611Z,999.5
2022-08-27T10:27:48.833Z,999.5
2022-08-27T10:29:05.064Z,999.6
2022-08-27T10:30:21.319Z,999.6
2022-08-27T10:31:37.558Z,999.5
2022-08-27T10:32:53.798Z,999.5
2022-08-27T10:34:10.032Z,999.6
2022-08-27T10:35:26.267Z,999.6
2022-08-27T10:36:42.531Z,999.7
2022-08-27T10:37:57.772Z,999.6
2022-08-27T10:39:13.994Z,999.6
2022-08-27T10:40:30.231Z,999.7
2022-08-27T10:41:46.471Z,999.7
2022-08-27T10:43:02.716Z,999.7
2022-08-27T10:44:18.950Z,999.7
2022-08-27T10:45:35.194Z,999.7
2022-08-27T10:46:51.429Z,999.8
2022-08-27T10:48:07.693Z,999.7
2022-08-27T10:49:23.933Z,999.8
2022-08-27T10:50:40.163Z,999.8
2022-08-27T10:51:56.406Z,999.8
2022-08-27T10:53:12.657Z,999.8
2022-08-27T10:54:27.895Z,999.8
2022-08-27T10:55:44.141Z,999.8
2022-08-27T10:57:00.380Z,999.8
2022-08-27T10:58:16.613Z,999.7
2022-08-27T10:59:32.862Z,999.8
2022-08-27T11:00:49.110Z,999.8
2022-08-27T11:02:05.346Z,999.8
2022-08-27T11:03:21.582Z,999.8
2022-08-27T11:04:37.803Z,999.8
2022-08-27T11:05:54.053Z,999.7
2022-08-27T11:07:10.296Z,999.7
2022-08-27T11:08:26.531Z,999.8
2022-08-27T11:09:42.764Z,999.8
2022-08-27T11:10:58.018Z,999.8
2022-08-27T11:12:14.264Z,999.8
2022-08-27T11:13:30.513Z,999.8
2022-08-27T11:14:46.755Z,999.7
2022-08-27T11:16:02.997Z,999.8
2022-08-27T11:17:19.238Z,999.7
2022-08-27T11:18:35.463Z,999.8
2022-08-27T11:19:51.706Z,999.7
2022-08-27T11:21:07.951Z,999.7
2022-08-27T11:22:24.192Z,999.7
2022-08-27T11:23:40.431Z,999.7
2022-08-27T11:24:56.674Z,999.7
2022-08-27T11:26:12.917Z,999.8
2022-08-27T11:27:28.158Z,999.7
2022-08-27T11:28:44.406Z,999.7
2022-08-27T11:30:00.653Z,999.7
2022-08-27T11:31:16.899Z,999.7
2022-08-27T11:32:33.129Z,999.7
2022-08-27T11:33:49.359Z,999.7
2022-08-27T11:35:04.614Z,999.7
2022-08-27T11:36:20.855Z,999.7
2022-08-27T11:37:37.108Z,999.7
2022-08-27T11:38:53.354Z,999.7
2022-08-27T11:40:09.580Z,999.7
2022-08-27T11:41:25.821Z,999.8
2022-08-27T11:42:42.059Z,999.7
2022-08-27T11:43:58.293Z,999.7
2022-08-27T11:45:14.543Z,999.7
2022-08-27T11:46:30.793Z,999.7
2022-08-27T11:47:47.019Z,999.7
2022-08-27T11:49:03.255Z,999.7
2022-08-27T11:50:19.500Z,999.7
2022-08-27T11:51:34.781Z,999.6
2022-08-27T11:52:50.987Z,999.7
2022-08-27T11:54:07.235Z,999.7
2022-08-27T11:55:23.465Z,999.7
2022-08-27T11:56:39.738Z,999.7
2022-08-27T11:57:55.946Z,999.7
2022-08-27T11:59:12.186Z,999.7
2022-08-27T12:00:28.424Z,999.7
2022-08-27T12:01:44.688Z,999.7
2022-08-27T12:03:00.899Z,999.7
2022-08-27T12:04:17.139Z,999.8
2022-08-27T12:05:33.378Z,999.7
2022-08-27T12:06:49.637Z,999.7
2022-08-27T12:08:04.883Z,999.7
2022-08-27T12:09:21.139Z,999.7
2022-08-27T12:10:37.379Z,999.6
2022-08-27T12:11:53.581Z,999.7
2022-08-27T12:13:09.823Z,999.7
2022-08-27T12:14:26.064Z,999.7
2022-08-27T12:15:42.309Z,999.7
2022-08-27T12:16:58.552Z,999.7
2022-08-27T12:18:14.792Z,999.7
2022-08-27T12:19:31.035Z,999.7
2022-08-27T12:20:47.272Z,999.7
2022-08-27T12:22:03.504Z,999.7
2022-08-27T12:23:19.762Z,999.7
2022-08-27T12:24:34.989Z,999.7
2022-08-27T12:25:51.232Z,999.7
2022-08-27T12:27:07.490Z,999.6
2022-08-27T12:28:23.720Z,999.6
2022-08-27T12:29:39.964Z,999.6
2022-08-27T12:30:56.184Z,999.6
2022-08-27T12:32:12.424Z,999.6
2022-08-27T12:33:28.661Z,999.6
2022-08-27T12:34:44.902Z,999.6
2022-08-27T12:36:01.147Z,999.6
2022-08-27T12:37:17.379Z,999.5
2022-08-27T12:38:33.617Z,999.6
2022-08-27T12:39:49.862Z,999.5
2022-08-27T12:41:05.113Z,999.5
2022-08-27T12:42:21.384Z,999.5
2022-08-27T12:43:37.596Z,999.5
2022-08-27T12:44:53.846Z,999.5
2022-08-27T12:46:10.071Z,999.4
2022-08-27T12:47:26.321Z,999.5
2022-08-27T12:48:42.567Z,999.4
2022-08-27T12:49:58.821Z,999.5
2022-08-27T12:51:15.023Z,999.4
2022-08-27T12:52:31.270Z,999.4
2022-08-27T12:53:47.509Z,999.4
2022-08-27T12:55:03.745Z,999.4
2022-08-27T12:56:20.007Z,999.4
2022-08-27T12:57:35.236Z,999.4
2022-08-27T12:58:51.491Z,999.4
2022-08-27T13:00:07.723Z,999.4
2022-08-27T13:01:23.954Z,999.4
2022-08-27T13:02:40.202Z,999.4
2022-08-27T13:03:56.451Z,999.4
2022-08-27T13:05:12.668Z,999.4
2022-08-27T13:06:28.905Z,999.3
2022-08-27T13:07:45.156Z,999.3
2022-08-27T13:09:01.394Z,999.4
2022-08-27T13:10:17.634Z,999.4
2022-08-27T13:11:33.887Z,999.4
2022-08-27T13:12:50.109Z,999.3
2022-08-27T13:14:05.366Z,999.3
2022-08-27T13:15:21.599Z,999.4
2022-08-27T13:16:37.839Z,999.4
2022-08-27T13:17:54.070Z,999.4
2022-08-27T13:19:10.311Z,999.4
2022-08-27T13:20:26.558Z,999.3
2022-08-27T13:21:42.792Z,999.3
2022-08-27T13:22:59.027Z,999.3
2022-08-27T13:24:15.286Z,999.3
2022-08-27T13:25:31.503Z,999.3
2022-08-27T13:26:47.749Z,999.3
2022-08-27T13:28:03.986Z,999.3
2022-08-27T13:29:20.233Z,999.4
2022-08-27T13:30:35.478Z,999.4
2022-08-27T13:31:51.726Z,999.4
2022-08-27T13:33:07.956Z,999.4
2022-08-27T13:34:24.198Z,999.4
2022-08-27T13:35:40.435Z,999.4
2022-08-27T13:36:56.692Z,999.4
2022-08-27T13:38:12.903Z,999.4
2022-08-27T13:39:29.169Z,999.4
2022-08-27T13:40:45.381Z,999.4
2022-08-27T13:42:01.630Z,999.4
2022-08-27T13:43:17.899Z,999.5
2022-08-27T13:44:34.095Z,999.4
2022-08-27T13:45:50.353Z,999.4
2022-08-27T13:47:05.592Z,999.4
2022-08-27T13:48:21.830Z,999.4
2022-08-27T13:49:38.093Z,999.5
2022-08-27T13:50:54.316Z,999.4
2022-08-27T13:52:10.558Z,999.5
2022-08-27T13:53:26.790Z,999.5
2022-08-27T13:54:43.034Z,999.5
2022-08-27T13:55:59.267Z,999.5
2022-08-27T13:57:15.501Z,999.5
2022-08-27T13:58:31.759Z,999.5
2022-08-27T13:59:48.017Z,999.5
2022-08-27T14:01:04.237Z,999.5
2022-08-27T14:02:20.466Z,999.5
2022-08-27T14:03:35.714Z,999.5
2022-08-27T14:04:51.952Z,999.5
2022-08-27T14:06:08.218Z,999.5
2022-08-27T14:07:24.439Z,999.5
2022-08-27T14:08:40.668Z,999.4
2022-08-27T14:09:56.917Z,999.4
2022-08-27T14:11:13.163Z,999.4
2022-08-27T14:12:29.391Z,999.4
2022-08-27T14:13:45.634Z,999.4
2022-08-27T14:15:01.872Z,999.4
2022-08-27T14:16:18.128Z,999.4
2022-08-27T14:17:34.380Z,999.4
2022-08-27T14:18:50.589Z,999.5
2022-08-27T14:20:05.835Z,999.5
2022-08-27T14:21:22.079Z,999.5
2022-08-27T14:22:38.348Z,999.5
2022-08-27T14:23:54.563Z,999.6
2022-08-27T14:25:10.788Z,999.5
2022-08-27T14:26:27.050Z,999.5
2022-08-27T14:27:43.262Z,999.5
2022-08-27T14:28:59.519Z,999.5
2022-08-27T14:30:15.770Z,999.5
2022-08-27T14:31:31.998Z,999.4
2022-08-27T14:32:48.257Z,999.4
2022-08-27T14:34:04.466Z,999.4
2022-08-27T14:35:20.719Z,999.4
2022-08-27T14:36:35.946Z,999.5
2022-08-27T14:37:52.187Z,999.5
2022-08-27T14:39:08.438Z,999.5
2022-08-27T14:40:24.694Z,999.5
2022-08-27T14:41:40.903Z,999.5
2022-08-27T14:42:57.143Z,999.5
2022-08-27T14:44:13.375Z,999.5
2022-08-27T14:45:29.626Z,999.5
2022-08-27T14:46:45.861Z,999.5
2022-08-27T14:48:02.095Z,999.4
2022-08-27T14:49:18.334Z,999.4
2022-08-27T14:50:34.601Z,999.4
2022-08-27T14:51:50.808Z,999.4
2022-08-27T14:53:06.087Z,999.4
2022-08-27T14:54:22.329Z,999.4
2022-08-27T14:55:38.538Z,999.5
2022-08-27T14:56:54.783Z,999.5
2022-08-27T14:58:11.020Z,999.4
2022-08-27T14:59:27.265Z,999.4
2022-08-27T15:00:43.505Z,999.5
2022-08-27T15:01:59.746Z,999.4
2022-08-27T15:03:15.967Z,999.5
2022-08-27T15:04:32.250Z,999.5
2022-08-27T15:05:48.482Z,999.5
2022-08-27T15:07:04.700Z,999.5
2022-08-27T15:08:20.948Z,999.5
2022-08-27T15:09:36.185Z,999.5
2022-08-27T15:10:52.449Z,999.5
2022-08-27T15:12:08.651Z,999.6
2022-08-27T15:13:24.919Z,999.5
2022-08-27T15:14:41.129Z,999.5
2022-08-27T15:15:57.372Z,999.6
2022-08-27T15:17:13.616Z,999.6
2022-08-27T15:18:29.847Z,999.7
2022-08-27T15:19:46.077Z,999.7
2022-08-27T15:21:02.323Z,999.7
2022-08-27T15:22:18.568Z,999.7
2022-08-27T15:23:34.793Z,999.8
2022-08-27T15:24:51.029Z,999.8
2022-08-27T15:26:06.295Z,999.8
2022-08-27T15:27:22.529Z,999.7
2022-08-27T15:28:38.761Z,999.7
2022-08-27T15:29:54.998Z,999.7
2022-08-27T15:31:11.245Z,999.7
2022-08-27T15:32:27.494Z,999.7
2022-08-27T15:33:43.749Z,999.8
2022-08-27T15:34:59.958Z,999.7
2022-08-27T15:36:16.193Z,999.8
2022-08-27T15:37:32.432Z,999.8
2022-08-27T15:38:48.684Z,999.8
2022-08-27T15:40:04.916Z,999.8
2022-08-27T15:41:21.145Z,999.8
2022-08-27T15:42:36.415Z,999.8
2022-08-27T15:43:52.639Z,999.8
2022-08-27T15:45:08.902Z,999.8
2022-08-27T15:46:25.131Z,999.9
2022-08-27T15:47:41.364Z,999.8
2022-08-27T15:48:57.623Z,999.9
2022-08-27T15:50:12.859Z,999.9
2022-08-27T15:51:29.118Z,999.9
2022-08-27T15:52:45.363Z,999.9
2022-08-27T15:54:01.569Z,999.9
2022-08-27T15:55:17.803Z,999.8
2022-08-27T15:56:34.046Z,999.9
2022-08-27T15:57:50.282Z,1000
2022-08-27T15:59:06.549Z,999.9
2022-08-27T16:00:22.759Z,1000
2022-08-27T16:01:39.027Z,1000
2022-08-27T16:02:55.272Z,1000
2022-08-27T16:04:11.506Z,1000
2022-08-27T16:05:27.734Z,1000.1
2022-08-27T16:06:43.003Z,1000
2022-08-27T16:07:59.224Z,1000.1
2022-08-27T16:09:15.452Z,1000.1
2022-08-27T16:10:31.686Z,1000.1
2022-08-27T16:11:47.935Z,1000.1
2022-08-27T16:13:04.173Z,1000.1
2022-08-27T16:14:20.407Z,1000
2022-08-27T16:15:36.649Z,1000
2022-08-27T16:16:52.897Z,1000
2022-08-27T16:18:09.123Z,1000
2022-08-27T16:19:25.372Z,1000
2022-08-27T16:20:41.602Z,1000
2022-08-27T16:21:57.852Z,1000
2022-08-27T16:23:13.096Z,1000
2022-08-27T16:24:29.338Z,1000